Vashon, Washington
Current Conditions -  °F | °C
As of 10:11 PM on Saturday 20 Dec 2014 (Local Time) from KSEA Reporting Station
Overcast Overcast  
Wind Chill: 54°   Ceiling: 1400
Heat Index: 54°   Visibility: 10mi
Dew Point: 52°   Wind: 25mph
Humidity: 94%   Direction: 220°SW
Pressure: 29.49"   Gusts: 39mph
Location:  47.45°N, 122.46°W
Report Text: KSEA 210611Z 22022G34KT 10SM SCT009 BKN014 OVC021 12/11 A2949 RMK AO2 PK WND 23034/0603 RAE03 P0001
Loading
Personal Weather Stations






























Interactive Weather Map New forecast layout! Learn more

10-Day Weather Forecast

Advertisements
Track Severe Weather on mobile